Terminal Aerodrome Forecast
Issued by NWS

Home | Current Version | Previous Version | Text Only | Print | Product List | Glossary On
Versions: 1 2 3 4 5 6 7 8 9 10 11 12
160
FTUS43 KMPX 191731
TAFAXN
TAF
KAXN 191731Z 1918/2018 19018G24KT P6SM FEW250
     FM200000 17010KT P6SM SKC
     FM201400 17018G26KT P6SM SKC=

USA.gov is the U.S. government's official web portal to all federal, state and local government web resources and services.